createdAt,value
2023-01-25T00:01:58.944Z,3.10
2023-01-25T00:04:26.682Z,3.10
2023-01-25T00:06:54.474Z,3.10
2023-01-25T00:09:23.015Z,3.10
2023-01-25T00:11:50.961Z,3.20
2023-01-25T00:14:18.111Z,3.20
2023-01-25T00:16:45.451Z,3.20
2023-01-25T00:19:12.756Z,3.20
2023-01-25T00:21:40.072Z,3.20
2023-01-25T00:24:07.724Z,3.20
2023-01-25T00:26:35.780Z,3.20
2023-01-25T00:29:03.850Z,3.20
2023-01-25T00:31:34.673Z,3.20
2023-01-25T00:34:06.520Z,3.10
2023-01-25T00:36:37.928Z,3.20
2023-01-25T00:39:06.031Z,3.10
2023-01-25T00:41:33.086Z,3.10
2023-01-25T00:44:00.627Z,3.10
2023-01-25T00:46:28.338Z,3.10
2023-01-25T00:48:55.756Z,3.20
2023-01-25T00:51:23.778Z,3.10
2023-01-25T00:53:51.229Z,3.10
2023-01-25T00:56:18.392Z,3.10
2023-01-25T00:58:45.559Z,3.10
2023-01-25T01:01:12.945Z,3.10
2023-01-25T01:03:40.316Z,3.20
2023-01-25T01:06:10.513Z,3.10
2023-01-25T01:08:42.093Z,3.10
2023-01-25T01:11:11.223Z,3.10
2023-01-25T01:13:41.570Z,3.10
2023-01-25T01:16:12.172Z,3.00
2023-01-25T01:18:41.903Z,3.10
2023-01-25T01:21:10.012Z,3.10
2023-01-25T01:23:37.677Z,3.10
2023-01-25T01:26:07.614Z,3.10
2023-01-25T01:28:35.905Z,3.10
2023-01-25T01:31:05.132Z,3.10
2023-01-25T01:33:36.387Z,3.20
2023-01-25T01:36:17.709Z,3.10
2023-01-25T01:38:45.063Z,3.00
2023-01-25T01:41:12.936Z,3.10
2023-01-25T01:43:40.490Z,3.10
2023-01-25T01:46:40.888Z,3.00
2023-01-25T01:49:24.900Z,3.10
2023-01-25T01:52:11.115Z,3.10
2023-01-25T01:54:47.144Z,2.90
2023-01-25T01:57:22.612Z,3.10
2023-01-25T02:00:05.651Z,3.10
2023-01-25T02:02:41.018Z,3.00
2023-01-25T02:05:18.429Z,3.10
2023-01-25T02:07:49.179Z,3.00
2023-01-25T02:10:20.272Z,3.00
2023-01-25T02:12:48.732Z,3.00
2023-01-25T02:15:15.737Z,3.00
2023-01-25T02:17:43.275Z,3.10
2023-01-25T02:20:27.325Z,3.10
2023-01-25T02:23:00.700Z,3.10
2023-01-25T02:25:28.289Z,3.10
2023-01-25T02:28:00.439Z,3.10
2023-01-25T02:30:28.574Z,3.10
2023-01-25T02:32:55.870Z,3.10
2023-01-25T02:35:37.920Z,3.10
2023-01-25T02:38:07.221Z,3.00
2023-01-25T02:40:58.941Z,3.10
2023-01-25T02:43:31.281Z,3.10
2023-01-25T02:46:20.546Z,3.10
2023-01-25T02:48:47.613Z,3.00
2023-01-25T02:51:14.654Z,3.00
2023-01-25T02:53:41.908Z,3.10
2023-01-25T02:56:09.008Z,3.10
2023-01-25T02:58:36.172Z,3.00
2023-01-25T03:01:03.193Z,3.00
2023-01-25T03:03:30.244Z,3.00
2023-01-25T03:05:57.983Z,3.00
2023-01-25T03:08:25.343Z,3.00
2023-01-25T03:10:58.462Z,3.00
2023-01-25T03:13:26.464Z,2.90
2023-01-25T03:16:00.004Z,2.90
2023-01-25T03:18:28.296Z,2.90
2023-01-25T03:20:55.226Z,2.90
2023-01-25T03:23:22.444Z,2.90
2023-01-25T03:25:50.608Z,3.00
2023-01-25T03:28:18.790Z,3.00
2023-01-25T03:30:53.829Z,3.00
2023-01-25T03:33:21.007Z,3.00
2023-01-25T03:35:52.750Z,3.00
2023-01-25T03:38:20.701Z,3.00
2023-01-25T03:40:48.143Z,3.00
2023-01-25T03:43:15.981Z,3.00
2023-01-25T03:45:43.118Z,3.10
2023-01-25T03:48:10.904Z,3.10
2023-01-25T03:50:38.577Z,3.00
2023-01-25T03:53:17.263Z,3.00
2023-01-25T03:55:44.308Z,3.00
2023-01-25T03:58:11.437Z,2.90
2023-01-25T04:00:38.628Z,3.00
2023-01-25T04:03:05.632Z,2.90
2023-01-25T04:05:32.631Z,2.90
2023-01-25T04:08:00.471Z,3.00
2023-01-25T04:10:37.402Z,3.00
2023-01-25T04:13:05.463Z,3.00
2023-01-25T04:15:32.915Z,3.00
2023-01-25T04:18:06.402Z,3.00
2023-01-25T04:20:36.308Z,3.00
2023-01-25T04:23:03.592Z,3.00
2023-01-25T04:25:36.593Z,3.00
2023-01-25T04:28:06.495Z,3.00
2023-01-25T04:30:33.465Z,3.00
2023-01-25T04:33:05.868Z,3.00
2023-01-25T04:35:34.226Z,3.00
2023-01-25T04:38:03.109Z,2.90
2023-01-25T04:40:43.177Z,3.00
2023-01-25T04:43:12.969Z,3.00
2023-01-25T04:45:40.305Z,3.00
2023-01-25T04:48:14.719Z,3.10
2023-01-25T04:50:49.400Z,3.00
2023-01-25T04:53:17.673Z,3.00
2023-01-25T04:55:47.319Z,3.00
2023-01-25T04:58:15.693Z,3.00
2023-01-25T05:00:43.887Z,3.00
2023-01-25T05:03:11.945Z,3.00
2023-01-25T05:05:38.872Z,3.00
2023-01-25T05:08:11.238Z,3.00
2023-01-25T05:10:38.438Z,3.10
2023-01-25T05:13:33.933Z,3.00
2023-01-25T05:16:13.219Z,3.00
2023-01-25T05:18:48.522Z,3.00
2023-01-25T05:21:38.648Z,3.00
2023-01-25T05:24:07.336Z,2.90
2023-01-25T05:26:55.680Z,3.00
2023-01-25T05:29:23.030Z,3.00
2023-01-25T05:32:15.697Z,3.00
2023-01-25T05:34:43.888Z,3.00
2023-01-25T05:37:14.786Z,3.00
2023-01-25T05:39:44.572Z,3.00
2023-01-25T05:42:13.622Z,3.00
2023-01-25T05:44:41.076Z,3.00
2023-01-25T05:47:17.618Z,3.00
2023-01-25T05:49:44.916Z,3.10
2023-01-25T05:52:18.340Z,3.00
2023-01-25T05:54:45.506Z,3.10
2023-01-25T05:57:15.791Z,3.00
2023-01-25T05:59:43.091Z,3.00
2023-01-25T06:02:12.191Z,3.10
2023-01-25T06:04:40.408Z,3.10
2023-01-25T06:07:09.363Z,3.00
2023-01-25T06:09:37.169Z,2.90
2023-01-25T06:12:06.108Z,2.90
2023-01-25T06:14:33.603Z,3.00
2023-01-25T06:17:02.325Z,3.00
2023-01-25T06:20:05.097Z,3.00
2023-01-25T06:22:36.894Z,2.90
2023-01-25T06:25:04.125Z,3.00
2023-01-25T06:27:31.063Z,2.90
2023-01-25T06:29:58.071Z,2.90
2023-01-25T06:32:26.086Z,2.90
2023-01-25T06:34:53.352Z,3.00
2023-01-25T06:37:23.057Z,3.00
2023-01-25T06:39:50.340Z,3.00
2023-01-25T06:42:17.534Z,2.90
2023-01-25T06:44:44.517Z,3.00
2023-01-25T06:47:12.544Z,2.90
2023-01-25T06:49:39.606Z,2.90
2023-01-25T06:52:06.583Z,3.10
2023-01-25T06:54:34.252Z,3.10
2023-01-25T06:57:01.239Z,3.10
2023-01-25T06:59:28.330Z,3.10
2023-01-25T07:01:55.318Z,3.10
2023-01-25T07:04:22.864Z,3.10
2023-01-25T07:06:49.946Z,3.10
2023-01-25T07:09:18.022Z,3.00
2023-01-25T07:11:45.088Z,3.00
2023-01-25T07:14:12.046Z,3.00
2023-01-25T07:16:39.194Z,3.10
2023-01-25T07:19:07.488Z,3.00
2023-01-25T07:21:34.487Z,3.10
2023-01-25T07:24:06.551Z,3.10
2023-01-25T07:26:33.611Z,3.20
2023-01-25T07:29:00.723Z,3.10
2023-01-25T07:31:28.757Z,3.10
2023-01-25T07:33:57.939Z,3.10
2023-01-25T07:36:26.284Z,3.10
2023-01-25T07:38:55.023Z,3.10
2023-01-25T07:41:25.590Z,3.10
2023-01-25T07:43:53.209Z,3.20
2023-01-25T07:46:31.020Z,3.20
2023-01-25T07:48:59.567Z,3.20
2023-01-25T07:51:27.953Z,3.20
2023-01-25T07:53:58.037Z,3.20
2023-01-25T07:56:28.235Z,3.10
2023-01-25T07:58:56.757Z,3.10
2023-01-25T08:01:26.569Z,3.20
2023-01-25T08:03:58.235Z,3.20
2023-01-25T08:06:33.358Z,3.30
2023-01-25T08:09:02.701Z,3.20
2023-01-25T08:11:31.364Z,3.30
2023-01-25T08:13:59.121Z,3.20
2023-01-25T08:16:27.114Z,3.20
2023-01-25T08:18:59.490Z,3.30
2023-01-25T08:21:30.975Z,3.20
2023-01-25T08:24:03.920Z,3.30
2023-01-25T08:26:31.206Z,3.20
2023-01-25T08:28:58.904Z,3.30
2023-01-25T08:31:28.864Z,3.30
2023-01-25T08:33:58.398Z,3.30
2023-01-25T08:36:28.154Z,3.30
2023-01-25T08:39:04.623Z,3.40
2023-01-25T08:41:33.236Z,3.40
2023-01-25T08:44:00.307Z,3.30
2023-01-25T08:46:31.582Z,3.20
2023-01-25T08:49:00.973Z,3.20
2023-01-25T08:51:28.665Z,3.30
2023-01-25T08:53:55.723Z,3.40
2023-01-25T08:56:23.013Z,3.40
2023-01-25T08:58:51.219Z,3.40
2023-01-25T09:01:19.891Z,3.30
2023-01-25T09:03:51.714Z,3.40
2023-01-25T09:06:20.386Z,3.40
2023-01-25T09:08:48.397Z,3.40
2023-01-25T09:11:22.971Z,3.50
2023-01-25T09:13:50.482Z,3.40
2023-01-25T09:16:28.969Z,3.40
2023-01-25T09:18:58.987Z,3.50
2023-01-25T09:21:26.270Z,3.50
2023-01-25T09:24:09.663Z,3.50
2023-01-25T09:26:46.005Z,3.50
2023-01-25T09:29:18.161Z,3.60
2023-01-25T09:31:45.245Z,3.50
2023-01-25T09:34:16.014Z,3.50
2023-01-25T09:36:42.964Z,3.60
2023-01-25T09:39:12.364Z,3.60
2023-01-25T09:42:06.743Z,3.60
2023-01-25T09:45:28.808Z,3.60
2023-01-25T09:48:20.656Z,3.60
2023-01-25T09:51:19.511Z,3.70
2023-01-25T09:53:51.717Z,3.60
2023-01-25T09:56:30.465Z,3.70
2023-01-25T09:59:06.750Z,3.60
2023-01-25T10:02:03.269Z,3.60
2023-01-25T10:04:42.495Z,3.70
2023-01-25T10:07:40.700Z,3.70
2023-01-25T10:10:16.414Z,3.70
2023-01-25T10:12:43.496Z,3.70
2023-01-25T10:15:38.286Z,3.70
2023-01-25T10:18:38.870Z,3.70
2023-01-25T10:21:34.119Z,3.70
2023-01-25T10:24:13.170Z,3.80
2023-01-25T10:26:45.022Z,3.70
2023-01-25T10:29:21.797Z,3.70
2023-01-25T10:31:54.828Z,3.70
2023-01-25T10:34:47.047Z,3.60
2023-01-25T10:37:31.276Z,3.60
2023-01-25T10:40:20.707Z,3.70
2023-01-25T10:42:56.303Z,3.70
2023-01-25T10:45:23.343Z,3.80
2023-01-25T10:47:57.400Z,3.80
2023-01-25T10:50:42.362Z,3.80
2023-01-25T10:53:28.060Z,3.70
2023-01-25T10:56:22.547Z,3.80
2023-01-25T10:58:54.407Z,3.90
2023-01-25T11:01:31.727Z,3.90
2023-01-25T11:04:00.075Z,3.90
2023-01-25T11:06:35.706Z,3.90
2023-01-25T11:09:29.329Z,3.90
2023-01-25T11:11:59.168Z,3.90
2023-01-25T11:14:28.899Z,3.90
2023-01-25T11:16:59.196Z,3.90
2023-01-25T11:19:36.755Z,3.90
2023-01-25T11:22:24.576Z,3.90
2023-01-25T11:24:51.758Z,3.90
2023-01-25T11:27:25.120Z,3.90
2023-01-25T11:30:30.925Z,3.80
2023-01-25T11:32:57.962Z,3.70
2023-01-25T11:35:33.204Z,3.80
2023-01-25T11:38:09.082Z,3.80
2023-01-25T11:40:47.044Z,3.80
2023-01-25T11:43:17.054Z,3.70
2023-01-25T11:46:06.746Z,3.70
2023-01-25T11:48:50.650Z,3.70
2023-01-25T11:51:38.351Z,3.90
2023-01-25T11:54:29.921Z,3.70
2023-01-25T11:57:08.794Z,3.50
2023-01-25T11:59:48.425Z,3.40
2023-01-25T12:02:53.332Z,3.50
2023-01-25T12:05:32.349Z,3.50
2023-01-25T12:08:34.507Z,3.50
2023-01-25T12:11:23.233Z,3.50
2023-01-25T12:14:07.388Z,3.40
2023-01-25T12:16:55.949Z,3.60
2023-01-25T12:19:40.667Z,3.50
2023-01-25T12:23:05.943Z,3.60
2023-01-25T12:25:47.367Z,3.50
2023-01-25T12:28:22.395Z,3.60
2023-01-25T12:30:55.932Z,3.50
2023-01-25T12:34:04.837Z,3.50
2023-01-25T12:36:33.488Z,3.40
2023-01-25T12:39:30.298Z,3.40
2023-01-25T12:42:18.698Z,3.50
2023-01-25T12:45:07.572Z,3.50
2023-01-25T12:47:58.388Z,3.50
2023-01-25T12:50:55.082Z,3.50
2023-01-25T12:53:27.311Z,3.40
2023-01-25T12:55:56.489Z,3.40
2023-01-25T12:58:38.856Z,3.50
2023-01-25T13:01:13.983Z,3.50
2023-01-25T13:04:05.299Z,3.50
2023-01-25T13:06:37.393Z,3.50
2023-01-25T13:09:17.372Z,3.60
2023-01-25T13:11:46.469Z,3.50
2023-01-25T13:14:16.714Z,3.50
2023-01-25T13:17:36.399Z,3.50
2023-01-25T13:20:23.793Z,3.50
2023-01-25T13:22:52.155Z,3.50
2023-01-25T13:25:21.637Z,3.50
2023-01-25T13:27:51.564Z,3.40
2023-01-25T13:30:34.571Z,3.60
2023-01-25T13:33:04.399Z,3.60
2023-01-25T13:35:33.802Z,3.50
2023-01-25T13:38:07.910Z,3.50
2023-01-25T13:40:38.696Z,3.50
2023-01-25T13:43:20.483Z,3.40
2023-01-25T13:45:52.916Z,3.40
2023-01-25T13:48:25.962Z,3.40
2023-01-25T13:51:08.628Z,3.30
2023-01-25T13:53:39.713Z,3.30
2023-01-25T13:56:27.340Z,3.40
2023-01-25T13:58:54.335Z,3.30
2023-01-25T14:01:23.805Z,3.30
2023-01-25T14:03:55.698Z,3.40
2023-01-25T14:06:26.134Z,3.40
2023-01-25T14:08:55.923Z,3.40
2023-01-25T14:11:26.012Z,3.30
2023-01-25T14:14:03.443Z,3.30
2023-01-25T14:16:32.457Z,3.30
2023-01-25T14:19:23.454Z,3.30
2023-01-25T14:21:57.914Z,3.30
2023-01-25T14:24:25.124Z,3.20
2023-01-25T14:26:52.078Z,3.30
2023-01-25T14:29:35.952Z,3.30
2023-01-25T14:32:04.036Z,3.20
2023-01-25T14:34:31.333Z,3.20
2023-01-25T14:37:18.828Z,3.20
2023-01-25T14:39:47.446Z,3.30
2023-01-25T14:42:16.708Z,3.20
2023-01-25T14:44:44.861Z,3.20
2023-01-25T14:47:31.904Z,3.20
2023-01-25T14:50:30.912Z,3.10
2023-01-25T14:53:24.688Z,3.10
2023-01-25T14:55:52.214Z,3.10
2023-01-25T14:58:24.923Z,3.10
2023-01-25T15:00:58.412Z,3.10
2023-01-25T15:03:26.812Z,3.00
2023-01-25T15:06:01.425Z,3.10
2023-01-25T15:08:40.011Z,3.10
2023-01-25T15:11:48.879Z,3.10
2023-01-25T15:14:22.180Z,3.00
2023-01-25T15:16:49.513Z,3.00
2023-01-25T15:19:31.036Z,3.00
2023-01-25T15:21:59.973Z,3.00
2023-01-25T15:24:27.806Z,3.00
2023-01-25T15:26:55.706Z,3.00
2023-01-25T15:29:27.161Z,3.00
2023-01-25T15:31:56.552Z,2.90
2023-01-25T15:34:34.585Z,2.90
2023-01-25T15:37:01.959Z,2.90
2023-01-25T15:39:29.124Z,2.90
2023-01-25T15:41:56.424Z,2.90
2023-01-25T15:44:26.450Z,2.90
2023-01-25T15:46:53.851Z,2.90
2023-01-25T15:49:27.504Z,2.90
2023-01-25T15:51:58.009Z,2.90
2023-01-25T15:54:25.463Z,2.90
2023-01-25T15:56:58.516Z,2.80
2023-01-25T15:59:29.435Z,2.70
2023-01-25T16:01:56.996Z,2.70
2023-01-25T16:04:26.035Z,2.80
2023-01-25T16:06:54.506Z,2.70
2023-01-25T16:09:22.838Z,2.70
2023-01-25T16:11:55.409Z,2.80
2023-01-25T16:14:26.508Z,2.80
2023-01-25T16:16:54.272Z,2.80
2023-01-25T16:19:23.104Z,2.80
2023-01-25T16:21:52.096Z,2.70
2023-01-25T16:24:19.709Z,2.70
2023-01-25T16:27:09.389Z,2.60
2023-01-25T16:29:36.953Z,2.60
2023-01-25T16:32:04.106Z,2.50
2023-01-25T16:34:32.621Z,2.60
2023-01-25T16:37:01.899Z,2.50
2023-01-25T16:39:29.503Z,2.50
2023-01-25T16:41:58.100Z,2.40
2023-01-25T16:44:25.633Z,2.50
2023-01-25T16:46:52.879Z,2.50
2023-01-25T16:49:24.165Z,2.40
2023-01-25T16:51:57.702Z,2.40
2023-01-25T16:54:26.638Z,2.40
2023-01-25T16:56:58.049Z,2.40
2023-01-25T16:59:26.874Z,2.30
2023-01-25T17:01:54.613Z,2.20
2023-01-25T17:04:22.922Z,2.00
2023-01-25T17:06:53.079Z,2.10
2023-01-25T17:09:23.983Z,2.20
2023-01-25T17:11:56.453Z,2.30
2023-01-25T17:14:24.698Z,2.30
2023-01-25T17:16:53.906Z,2.40
2023-01-25T17:19:22.201Z,2.40
2023-01-25T17:21:50.187Z,2.30
2023-01-25T17:24:22.042Z,2.30
2023-01-25T17:26:51.808Z,2.20
2023-01-25T17:29:22.081Z,2.10
2023-01-25T17:31:50.274Z,2.20
2023-01-25T17:34:19.808Z,2.30
2023-01-25T17:36:48.686Z,2.30
2023-01-25T17:39:21.238Z,2.30
2023-01-25T17:41:52.114Z,2.20
2023-01-25T17:44:25.065Z,2.20
2023-01-25T17:47:17.804Z,2.30
2023-01-25T17:49:47.052Z,2.30
2023-01-25T17:52:14.760Z,2.30
2023-01-25T17:54:43.374Z,2.20
2023-01-25T17:57:11.538Z,2.20
2023-01-25T17:59:39.743Z,2.10
2023-01-25T18:02:07.986Z,2.10
2023-01-25T18:04:40.749Z,2.30
2023-01-25T18:07:12.057Z,2.20
2023-01-25T18:09:40.080Z,2.20
2023-01-25T18:12:09.439Z,2.20
2023-01-25T18:14:37.785Z,2.00
2023-01-25T18:17:05.625Z,2.10
2023-01-25T18:19:34.449Z,2.20
2023-01-25T18:22:02.911Z,2.00
2023-01-25T18:24:34.575Z,2.10
2023-01-25T18:27:18.178Z,2.10
2023-01-25T18:30:07.186Z,2.10
2023-01-25T18:32:35.774Z,2.20
2023-01-25T18:35:04.648Z,2.10
2023-01-25T18:37:40.304Z,2.10
2023-01-25T18:40:10.795Z,2.20
2023-01-25T18:42:41.089Z,2.20
2023-01-25T18:45:09.766Z,2.20
2023-01-25T18:47:38.424Z,2.10
2023-01-25T18:50:07.272Z,2.00
2023-01-25T18:52:37.552Z,1.90
2023-01-25T18:55:06.455Z,1.90
2023-01-25T18:57:35.107Z,1.80
2023-01-25T19:00:04.966Z,1.90
2023-01-25T19:02:40.902Z,1.90
2023-01-25T19:05:10.573Z,2.00
2023-01-25T19:07:39.497Z,2.00
2023-01-25T19:10:08.080Z,2.00
2023-01-25T19:12:37.525Z,2.00
2023-01-25T19:15:07.851Z,2.00
2023-01-25T19:17:36.161Z,1.90
2023-01-25T19:20:05.128Z,2.00
2023-01-25T19:22:33.421Z,2.00
2023-01-25T19:25:02.216Z,2.00
2023-01-25T19:27:30.744Z,2.20
2023-01-25T19:29:59.684Z,2.20
2023-01-25T19:32:27.820Z,2.20
2023-01-25T19:35:05.575Z,2.00
2023-01-25T19:37:34.565Z,2.00
2023-01-25T19:40:04.087Z,2.10
2023-01-25T19:42:33.358Z,2.10
2023-01-25T19:45:05.410Z,2.00
2023-01-25T19:47:36.325Z,2.10
2023-01-25T19:50:07.489Z,2.10
2023-01-25T19:52:37.145Z,2.10
2023-01-25T19:55:08.136Z,2.20
2023-01-25T19:57:38.944Z,2.20
2023-01-25T20:00:12.353Z,2.00
2023-01-25T20:02:42.350Z,2.00
2023-01-25T20:05:12.340Z,1.90
2023-01-25T20:07:43.792Z,1.90
2023-01-25T20:10:14.355Z,2.00
2023-01-25T20:12:46.975Z,1.90
2023-01-25T20:15:16.129Z,1.80
2023-01-25T20:17:44.464Z,1.70
2023-01-25T20:20:15.275Z,1.80
2023-01-25T20:22:43.703Z,1.70
2023-01-25T20:25:12.462Z,1.80
2023-01-25T20:27:41.275Z,1.90
2023-01-25T20:30:14.560Z,1.80
2023-01-25T20:32:43.107Z,1.80
2023-01-25T20:35:12.071Z,1.90
2023-01-25T20:37:40.743Z,1.90
2023-01-25T20:40:10.665Z,2.00
2023-01-25T20:42:39.485Z,2.00
2023-01-25T20:45:12.081Z,1.90
2023-01-25T20:47:41.713Z,1.80
2023-01-25T20:50:11.185Z,1.80
2023-01-25T20:52:40.983Z,1.80
2023-01-25T20:55:12.343Z,1.80
2023-01-25T20:57:41.779Z,1.70
2023-01-25T21:00:10.926Z,1.80
2023-01-25T21:02:39.505Z,1.80
2023-01-25T21:05:08.733Z,1.90
2023-01-25T21:07:37.670Z,1.80
2023-01-25T21:10:06.622Z,1.80
2023-01-25T21:12:34.398Z,1.80
2023-01-25T21:15:02.394Z,1.80
2023-01-25T21:17:31.765Z,1.80
2023-01-25T21:20:01.288Z,1.90
2023-01-25T21:22:37.825Z,1.90
2023-01-25T21:25:09.679Z,2.00
2023-01-25T21:27:38.245Z,2.00
2023-01-25T21:30:06.445Z,2.00
2023-01-25T21:32:34.505Z,2.10
2023-01-25T21:35:01.785Z,2.10
2023-01-25T21:37:30.174Z,2.10
2023-01-25T21:39:57.558Z,2.20
2023-01-25T21:42:25.129Z,2.20
2023-01-25T21:45:20.223Z,2.30
2023-01-25T21:47:47.454Z,2.20
2023-01-25T21:50:35.585Z,2.30
2023-01-25T21:53:05.276Z,2.10
2023-01-25T21:55:32.342Z,2.20
2023-01-25T21:57:59.477Z,2.20
2023-01-25T22:00:26.498Z,2.20
2023-01-25T22:02:53.852Z,2.20
2023-01-25T22:05:20.831Z,2.20
2023-01-25T22:07:47.830Z,2.20
2023-01-25T22:10:14.943Z,2.20
2023-01-25T22:12:42.038Z,2.20
2023-01-25T22:15:09.352Z,2.20
2023-01-25T22:17:36.337Z,2.20
2023-01-25T22:20:03.752Z,2.30
2023-01-25T22:22:30.743Z,2.30
2023-01-25T22:24:57.642Z,2.20
2023-01-25T22:27:51.198Z,2.20
2023-01-25T22:30:18.235Z,2.30
2023-01-25T22:32:45.212Z,2.20
2023-01-25T22:35:12.207Z,2.20
2023-01-25T22:37:39.155Z,2.20
2023-01-25T22:40:07.355Z,2.20
2023-01-25T22:42:35.111Z,2.10
2023-01-25T22:45:02.120Z,2.30
2023-01-25T22:47:29.214Z,2.10
2023-01-25T22:49:56.277Z,2.10
2023-01-25T22:52:23.356Z,2.10
2023-01-25T22:54:50.915Z,2.00
2023-01-25T22:57:18.034Z,2.00
2023-01-25T22:59:45.220Z,2.00
2023-01-25T23:02:12.125Z,2.00
2023-01-25T23:04:39.100Z,1.90
2023-01-25T23:07:12.856Z,1.80
2023-01-25T23:09:40.567Z,1.80
2023-01-25T23:12:07.914Z,1.90
2023-01-25T23:14:54.287Z,1.80
2023-01-25T23:17:42.266Z,1.90
2023-01-25T23:20:11.950Z,1.90
2023-01-25T23:22:39.195Z,1.80
2023-01-25T23:25:07.062Z,1.90
2023-01-25T23:27:34.007Z,2.00
2023-01-25T23:30:01.359Z,2.00
2023-01-25T23:32:28.418Z,2.00
2023-01-25T23:34:55.504Z,2.20
2023-01-25T23:37:23.107Z,2.10
2023-01-25T23:39:50.679Z,2.00
2023-01-25T23:42:21.781Z,2.00
2023-01-25T23:44:48.956Z,2.00
2023-01-25T23:47:16.678Z,2.00
2023-01-25T23:49:43.619Z,2.00
2023-01-25T23:52:10.597Z,2.00
2023-01-25T23:54:37.678Z,2.00
2023-01-25T23:57:04.596Z,2.00
2023-01-25T23:59:31.528Z,2.00
